createdAt,value
2023-05-06T00:01:26.829Z,12.32
2023-05-06T00:04:29.063Z,12.40
2023-05-06T00:07:31.298Z,12.39
2023-05-06T00:10:33.608Z,12.37
2023-05-06T00:13:35.910Z,12.37
2023-05-06T00:16:38.278Z,12.30
2023-05-06T00:19:40.589Z,12.25
2023-05-06T00:22:43.010Z,12.23
2023-05-06T00:25:45.750Z,12.19
2023-05-06T00:28:47.937Z,12.35
2023-05-06T00:31:50.239Z,12.13
2023-05-06T00:34:52.497Z,12.00
2023-05-06T00:37:59.020Z,11.93
2023-05-06T00:41:01.656Z,11.81
2023-05-06T00:44:03.911Z,11.77
2023-05-06T00:47:06.929Z,11.80
2023-05-06T00:50:09.311Z,11.89
2023-05-06T00:53:11.659Z,11.81
2023-05-06T00:56:14.013Z,11.83
2023-05-06T00:59:16.369Z,11.89
2023-05-06T01:02:18.605Z,11.75
2023-05-06T01:05:22.958Z,11.71
2023-05-06T01:08:58.997Z,11.67
2023-05-06T01:12:30.108Z,11.38
2023-05-06T01:15:36.845Z,11.21
2023-05-06T01:18:40.120Z,11.24
2023-05-06T01:21:45.775Z,11.11
2023-05-06T01:24:47.933Z,11.15
2023-05-06T01:27:50.684Z,11.09
2023-05-06T01:30:52.890Z,11.09
2023-05-06T01:34:07.057Z,11.13
2023-05-06T01:37:14.919Z,11.12
2023-05-06T01:40:18.080Z,11.12
2023-05-06T01:43:21.868Z,11.09
2023-05-06T01:46:25.272Z,11.14
2023-05-06T01:49:27.912Z,10.99
2023-05-06T01:52:30.134Z,11.00
2023-05-06T01:55:32.419Z,11.06
2023-05-06T01:58:34.633Z,11.09
2023-05-06T02:01:36.906Z,11.11
2023-05-06T02:04:39.281Z,11.07
2023-05-06T02:07:41.486Z,11.14
2023-05-06T02:10:43.657Z,11.19
2023-05-06T02:13:45.905Z,11.18
2023-05-06T02:16:48.101Z,11.13
2023-05-06T02:19:50.550Z,10.96
2023-05-06T02:22:53.047Z,11.02
2023-05-06T02:25:55.404Z,11.15
2023-05-06T02:28:57.573Z,11.21
2023-05-06T02:31:59.874Z,11.17
2023-05-06T02:35:02.300Z,11.16
2023-05-06T02:38:04.619Z,11.20
2023-05-06T02:41:06.823Z,11.07
2023-05-06T02:44:09.016Z,11.10
2023-05-06T02:47:11.185Z,11.06
2023-05-06T02:50:13.379Z,11.10
2023-05-06T02:53:15.636Z,11.18
2023-05-06T02:56:17.836Z,11.14
2023-05-06T02:59:20.036Z,11.05
2023-05-06T03:02:22.264Z,11.12
2023-05-06T03:05:24.511Z,11.04
2023-05-06T03:08:26.811Z,11.10
2023-05-06T03:11:31.516Z,10.93
2023-05-06T03:14:33.697Z,11.09
2023-05-06T03:17:36.225Z,11.38
2023-05-06T03:20:38.535Z,11.18
2023-05-06T03:23:40.721Z,11.12
2023-05-06T03:26:42.917Z,11.06
2023-05-06T03:29:45.415Z,11.12
2023-05-06T03:32:48.114Z,11.04
2023-05-06T03:35:50.341Z,11.11
2023-05-06T03:38:52.522Z,11.01
2023-05-06T03:41:54.722Z,11.03
2023-05-06T03:44:56.993Z,11.03
2023-05-06T03:47:59.196Z,11.07
2023-05-06T03:51:01.805Z,11.13
2023-05-06T03:54:04.728Z,11.25
2023-05-06T03:57:07.247Z,11.39
2023-05-06T04:00:10.495Z,11.58
2023-05-06T04:03:13.107Z,11.76
2023-05-06T04:06:15.489Z,11.74
2023-05-06T04:09:17.797Z,11.89
2023-05-06T04:12:20.020Z,12.13
2023-05-06T04:15:22.977Z,12.36
2023-05-06T04:18:25.262Z,12.54
2023-05-06T04:21:27.939Z,12.65
2023-05-06T04:24:31.273Z,12.86
2023-05-06T04:27:33.601Z,13.03
2023-05-06T04:30:36.046Z,12.96
2023-05-06T04:33:38.296Z,13.14
2023-05-06T04:36:41.039Z,13.32
2023-05-06T04:39:47.215Z,13.59
2023-05-06T04:42:49.394Z,13.69
2023-05-06T04:45:51.596Z,13.93
2023-05-06T04:48:53.799Z,14.07
2023-05-06T04:51:56.362Z,14.20
2023-05-06T04:54:58.633Z,14.30
2023-05-06T04:58:00.824Z,14.26
2023-05-06T05:01:08.694Z,14.15
2023-05-06T05:04:10.996Z,13.91
2023-05-06T05:07:13.156Z,13.78
2023-05-06T05:10:15.387Z,13.79
2023-05-06T05:13:17.601Z,13.47
2023-05-06T05:16:19.842Z,13.32
2023-05-06T05:19:22.031Z,13.24
2023-05-06T05:22:24.285Z,13.16
2023-05-06T05:25:27.005Z,13.32
2023-05-06T05:28:29.233Z,13.56
2023-05-06T05:31:31.568Z,13.66
2023-05-06T05:34:33.826Z,13.44
2023-05-06T05:37:36.444Z,13.70
2023-05-06T05:40:38.954Z,13.70
2023-05-06T05:43:41.111Z,13.74
2023-05-06T05:46:43.414Z,14.20
2023-05-06T05:49:45.680Z,14.51
2023-05-06T05:52:48.454Z,14.34
2023-05-06T05:55:50.628Z,14.47
2023-05-06T05:58:53.652Z,14.98
2023-05-06T06:01:55.776Z,15.31
2023-05-06T06:04:58.023Z,15.66
2023-05-06T06:08:02.221Z,15.94
2023-05-06T06:11:06.359Z,16.43
2023-05-06T06:14:08.579Z,16.88
2023-05-06T06:17:11.103Z,17.14
2023-05-06T06:20:13.611Z,17.40
2023-05-06T06:23:16.072Z,17.63
2023-05-06T06:26:18.288Z,17.78
2023-05-06T06:29:20.539Z,18.03
2023-05-06T06:32:22.741Z,18.40
2023-05-06T06:35:24.987Z,18.55
2023-05-06T06:38:27.256Z,18.74
2023-05-06T06:41:29.458Z,19.43
2023-05-06T06:44:32.025Z,20.15
2023-05-06T06:47:34.276Z,19.75
2023-05-06T06:50:36.452Z,20.11
2023-05-06T06:53:38.610Z,20.38
2023-05-06T06:56:40.787Z,20.61
2023-05-06T06:59:43.220Z,20.63
2023-05-06T07:02:48.091Z,20.57
2023-05-06T07:05:50.310Z,20.35
2023-05-06T07:08:52.561Z,20.12
2023-05-06T07:11:54.719Z,20.37
2023-05-06T07:14:56.931Z,20.50
2023-05-06T07:17:59.226Z,20.42
2023-05-06T07:21:01.469Z,20.48
2023-05-06T07:24:03.786Z,20.20
2023-05-06T07:27:05.998Z,20.36
2023-05-06T07:30:08.588Z,20.61
2023-05-06T07:33:10.755Z,20.86
2023-05-06T07:36:12.931Z,21.04
2023-05-06T07:39:15.068Z,21.44
2023-05-06T07:42:17.306Z,21.42
2023-05-06T07:45:23.041Z,21.54
2023-05-06T07:48:25.301Z,21.64
2023-05-06T07:51:28.173Z,22.08
2023-05-06T07:54:31.800Z,21.85
2023-05-06T07:57:34.114Z,21.98
2023-05-06T08:00:36.313Z,21.96
2023-05-06T08:03:38.617Z,21.91
2023-05-06T08:06:40.942Z,22.44
2023-05-06T08:09:43.162Z,22.45
2023-05-06T08:12:45.510Z,22.59
2023-05-06T08:15:48.459Z,22.58
2023-05-06T08:18:50.726Z,22.15
2023-05-06T08:21:53.010Z,22.17
2023-05-06T08:24:55.328Z,22.39
2023-05-06T08:27:57.583Z,22.35
2023-05-06T08:30:59.746Z,22.57
2023-05-06T08:34:02.417Z,22.67
2023-05-06T08:37:04.613Z,22.94
2023-05-06T08:40:17.290Z,23.30
2023-05-06T08:43:21.123Z,23.33
2023-05-06T08:46:23.414Z,23.37
2023-05-06T08:49:25.701Z,23.20
2023-05-06T08:52:28.494Z,23.39
2023-05-06T08:55:30.961Z,23.21
2023-05-06T08:58:35.127Z,23.38
2023-05-06T09:01:38.057Z,23.51
2023-05-06T09:04:40.474Z,23.56
2023-05-06T09:07:42.673Z,23.89
2023-05-06T09:10:46.211Z,23.99
2023-05-06T09:13:48.928Z,24.12
2023-05-06T09:16:52.615Z,23.91
2023-05-06T09:19:57.147Z,23.57
2023-05-06T09:23:01.246Z,23.45
2023-05-06T09:26:03.673Z,23.46
2023-05-06T09:29:06.437Z,23.99
2023-05-06T09:32:10.369Z,23.98
2023-05-06T09:35:12.766Z,23.70
2023-05-06T09:38:15.129Z,23.59
2023-05-06T09:41:20.941Z,23.32
2023-05-06T09:44:24.537Z,23.35
2023-05-06T09:47:28.251Z,23.76
2023-05-06T09:50:30.680Z,23.95
2023-05-06T09:53:34.886Z,24.36
2023-05-06T09:56:37.689Z,24.09
2023-05-06T09:59:40.160Z,23.52
2023-05-06T10:02:43.710Z,23.58
2023-05-06T10:05:46.469Z,23.11
2023-05-06T10:08:49.131Z,23.07
2023-05-06T10:11:52.325Z,22.83
2023-05-06T10:14:54.786Z,22.87
2023-05-06T10:17:57.585Z,22.59
2023-05-06T10:21:00.760Z,23.15
2023-05-06T10:24:09.218Z,23.73
2023-05-06T10:27:12.453Z,23.89
2023-05-06T10:30:18.850Z,23.60
2023-05-06T10:33:23.253Z,23.90
2023-05-06T10:36:27.817Z,23.71
2023-05-06T10:39:30.033Z,23.93
2023-05-06T10:42:35.603Z,24.46
2023-05-06T10:46:04.882Z,24.68
2023-05-06T10:49:11.346Z,24.49
2023-05-06T10:52:14.939Z,24.74
2023-05-06T10:55:30.285Z,24.60
2023-05-06T10:58:36.199Z,25.17
2023-05-06T11:01:40.505Z,25.32
2023-05-06T11:04:42.840Z,24.88
2023-05-06T11:07:45.075Z,24.50
2023-05-06T11:10:47.288Z,24.57
2023-05-06T11:13:53.063Z,24.10
2023-05-06T11:16:59.558Z,23.84
2023-05-06T11:20:24.515Z,23.94
2023-05-06T11:23:46.616Z,24.33
2023-05-06T11:26:50.296Z,24.51
2023-05-06T11:29:52.483Z,24.48
2023-05-06T11:32:55.962Z,24.45
2023-05-06T11:35:59.609Z,24.00
2023-05-06T11:39:06.629Z,23.79
2023-05-06T11:42:09.484Z,23.92
2023-05-06T11:45:12.491Z,23.56
2023-05-06T11:48:15.533Z,23.38
2023-05-06T11:51:24.172Z,23.28
2023-05-06T11:54:27.102Z,23.19
2023-05-06T11:57:29.847Z,23.15
2023-05-06T12:00:32.021Z,23.18
2023-05-06T12:03:34.382Z,23.23
2023-05-06T12:06:37.571Z,23.17
2023-05-06T12:09:42.745Z,23.28
2023-05-06T12:12:45.015Z,23.07
2023-05-06T12:15:48.310Z,23.16
2023-05-06T12:18:50.613Z,23.09
2023-05-06T12:21:52.795Z,23.03
2023-05-06T12:24:55.009Z,22.66
2023-05-06T12:27:58.213Z,22.64
2023-05-06T12:31:01.252Z,22.65
2023-05-06T12:34:04.473Z,22.44
2023-05-06T12:37:07.454Z,22.58
2023-05-06T12:40:17.006Z,22.47
2023-05-06T12:43:19.227Z,22.48
2023-05-06T12:46:21.716Z,22.48
2023-05-06T12:49:24.027Z,22.34
2023-05-06T12:52:28.658Z,22.26
2023-05-06T12:55:35.112Z,22.12
2023-05-06T12:58:38.110Z,22.14
2023-05-06T13:01:40.400Z,22.10
2023-05-06T13:04:42.732Z,22.14
2023-05-06T13:07:45.039Z,22.04
2023-05-06T13:10:47.247Z,22.13
2023-05-06T13:13:49.571Z,21.97
2023-05-06T13:16:52.008Z,22.00
2023-05-06T13:19:54.485Z,22.09
2023-05-06T13:22:56.673Z,22.22
2023-05-06T13:26:05.342Z,22.10
2023-05-06T13:29:08.235Z,22.13
2023-05-06T13:32:10.589Z,22.05
2023-05-06T13:35:12.998Z,21.98
2023-05-06T13:38:15.476Z,21.79
2023-05-06T13:41:17.678Z,21.73
2023-05-06T13:44:20.532Z,21.88
2023-05-06T13:47:23.173Z,21.62
2023-05-06T13:50:25.454Z,21.06
2023-05-06T13:53:27.714Z,20.79
2023-05-06T13:56:29.988Z,20.37
2023-05-06T13:59:32.155Z,19.77
2023-05-06T14:02:34.902Z,19.41
2023-05-06T14:05:37.155Z,19.17
2023-05-06T14:08:39.365Z,19.22
2023-05-06T14:11:41.533Z,18.92
2023-05-06T14:14:43.709Z,18.84
2023-05-06T14:17:45.936Z,18.97
2023-05-06T14:20:48.172Z,18.92
2023-05-06T14:23:50.346Z,19.05
2023-05-06T14:26:52.874Z,19.02
2023-05-06T14:29:55.093Z,19.02
2023-05-06T14:32:57.284Z,18.71
2023-05-06T14:36:00.143Z,18.62
2023-05-06T14:39:02.400Z,18.43
2023-05-06T14:42:04.692Z,18.44
2023-05-06T14:45:07.517Z,18.31
2023-05-06T14:48:10.376Z,18.21
2023-05-06T14:51:12.590Z,18.09
2023-05-06T14:54:14.751Z,17.99
2023-05-06T14:57:16.986Z,17.97
2023-05-06T15:00:20.331Z,17.94
2023-05-06T15:03:22.544Z,17.80
2023-05-06T15:06:25.098Z,17.87
2023-05-06T15:09:27.329Z,17.91
2023-05-06T15:12:29.588Z,18.08
2023-05-06T15:15:31.801Z,18.03
2023-05-06T15:18:34.036Z,18.00
2023-05-06T15:21:36.228Z,18.10
2023-05-06T15:24:38.434Z,18.13
2023-05-06T15:27:40.662Z,18.27
2023-05-06T15:30:42.817Z,18.36
2023-05-06T15:33:45.012Z,18.46
2023-05-06T15:36:54.491Z,18.68
2023-05-06T15:39:57.582Z,18.43
2023-05-06T15:42:59.806Z,18.45
2023-05-06T15:46:02.065Z,18.42
2023-05-06T15:49:31.972Z,18.56
2023-05-06T15:52:26.731Z,18.62
2023-05-06T15:55:29.199Z,18.59
2023-05-06T15:58:31.374Z,18.49
2023-05-06T16:02:08.410Z,18.59
2023-05-06T16:04:55.941Z,18.83
2023-05-06T16:07:58.542Z,19.18
2023-05-06T16:11:00.809Z,19.39
2023-05-06T16:14:03.912Z,19.30
2023-05-06T16:17:08.198Z,19.26
2023-05-06T16:20:11.340Z,19.21
2023-05-06T16:23:14.574Z,19.35
2023-05-06T16:26:17.761Z,19.49
2023-05-06T16:29:20.775Z,19.50
2023-05-06T16:32:23.567Z,19.58
2023-05-06T16:35:25.986Z,19.57
2023-05-06T16:38:28.262Z,19.61
2023-05-06T16:41:30.452Z,19.74
2023-05-06T16:44:32.686Z,19.61
2023-05-06T16:47:35.351Z,19.43
2023-05-06T16:50:38.453Z,19.25
2023-05-06T16:53:40.686Z,19.39
2023-05-06T16:56:51.309Z,19.32
2023-05-06T16:59:54.869Z,19.37
2023-05-06T17:02:57.147Z,19.36
2023-05-06T17:05:59.518Z,19.13
2023-05-06T17:09:01.729Z,19.22
2023-05-06T17:12:04.145Z,19.08
2023-05-06T17:15:07.021Z,18.95
2023-05-06T17:18:09.371Z,18.88
2023-05-06T17:21:11.602Z,18.53
2023-05-06T17:24:13.860Z,18.48
2023-05-06T17:27:16.784Z,18.35
2023-05-06T17:30:20.755Z,18.20
2023-05-06T17:33:24.089Z,18.29
2023-05-06T17:36:26.423Z,18.07
2023-05-06T17:39:28.611Z,18.00
2023-05-06T17:42:30.935Z,17.69
2023-05-06T17:45:33.156Z,17.68
2023-05-06T17:48:35.988Z,17.78
2023-05-06T17:51:38.314Z,17.76
2023-05-06T17:54:40.560Z,18.02
2023-05-06T17:57:43.004Z,17.77
2023-05-06T18:00:45.484Z,17.42
2023-05-06T18:03:47.846Z,17.20
2023-05-06T18:06:50.175Z,17.04
2023-05-06T18:09:52.510Z,16.94
2023-05-06T18:12:55.659Z,17.07
2023-05-06T18:15:57.957Z,16.95
2023-05-06T18:19:05.088Z,17.03
2023-05-06T18:22:07.378Z,16.92
2023-05-06T18:25:10.168Z,17.05
2023-05-06T18:28:12.553Z,16.90
2023-05-06T18:31:15.086Z,16.83
2023-05-06T18:34:17.287Z,16.84
2023-05-06T18:37:19.476Z,16.88
2023-05-06T18:40:21.678Z,16.71
2023-05-06T18:43:23.994Z,16.68
2023-05-06T18:46:27.601Z,16.58
2023-05-06T18:49:31.124Z,16.63
2023-05-06T18:52:33.695Z,16.65
2023-05-06T18:55:37.038Z,16.65
2023-05-06T18:58:40.622Z,16.62
2023-05-06T19:01:42.847Z,16.59
2023-05-06T19:04:45.099Z,16.50
2023-05-06T19:07:47.321Z,16.47
2023-05-06T19:10:49.510Z,16.44
2023-05-06T19:13:51.994Z,16.40
2023-05-06T19:16:54.571Z,16.63
2023-05-06T19:19:56.790Z,16.47
2023-05-06T19:22:58.979Z,16.77
2023-05-06T19:26:01.445Z,16.73
2023-05-06T19:29:03.715Z,16.55
2023-05-06T19:32:06.094Z,16.67
2023-05-06T19:35:09.028Z,16.54
2023-05-06T19:38:11.433Z,16.57
2023-05-06T19:41:13.809Z,16.47
2023-05-06T19:44:16.216Z,16.75
2023-05-06T19:47:18.440Z,16.60
2023-05-06T19:50:20.719Z,16.48
2023-05-06T19:53:23.968Z,16.58
2023-05-06T19:56:26.244Z,16.57
2023-05-06T19:59:28.528Z,16.60
2023-05-06T20:02:31.546Z,16.77
2023-05-06T20:05:33.921Z,16.56
2023-05-06T20:08:36.130Z,16.60
2023-05-06T20:11:38.591Z,16.56
2023-05-06T20:14:41.628Z,16.46
2023-05-06T20:17:43.859Z,16.44
2023-05-06T20:20:47.213Z,16.34
2023-05-06T20:23:49.716Z,16.37
2023-05-06T20:26:52.124Z,16.46
2023-05-06T20:29:54.378Z,16.45
2023-05-06T20:32:56.678Z,16.57
2023-05-06T20:35:59.058Z,16.43
2023-05-06T20:39:01.533Z,16.30
2023-05-06T20:42:03.797Z,16.31
2023-05-06T20:45:06.719Z,16.19
2023-05-06T20:48:09.105Z,16.17
2023-05-06T20:51:11.367Z,16.17
2023-05-06T20:54:13.547Z,16.14
2023-05-06T20:57:17.523Z,16.05
2023-05-06T21:00:20.085Z,16.17
2023-05-06T21:03:22.542Z,16.07
2023-05-06T21:06:24.827Z,16.02
2023-05-06T21:09:28.200Z,16.04
2023-05-06T21:12:30.407Z,15.87
2023-05-06T21:15:34.226Z,15.72
2023-05-06T21:18:36.813Z,15.92
2023-05-06T21:21:39.033Z,15.68
2023-05-06T21:24:41.294Z,15.76
2023-05-06T21:27:43.514Z,15.74
2023-05-06T21:30:45.769Z,15.65
2023-05-06T21:33:50.905Z,15.72
2023-05-06T21:36:53.131Z,15.74
2023-05-06T21:39:55.346Z,15.66
2023-05-06T21:42:57.571Z,15.66
2023-05-06T21:45:59.766Z,15.53
2023-05-06T21:49:02.049Z,15.28
2023-05-06T21:52:06.341Z,15.21
2023-05-06T21:55:09.030Z,15.18
2023-05-06T21:58:11.369Z,15.21
2023-05-06T22:01:13.648Z,15.18
2023-05-06T22:04:16.762Z,15.19
2023-05-06T22:07:19.125Z,15.12
2023-05-06T22:10:21.508Z,15.23
2023-05-06T22:13:26.529Z,15.23
2023-05-06T22:16:29.600Z,15.06
2023-05-06T22:19:31.831Z,14.94
2023-05-06T22:22:34.353Z,15.02
2023-05-06T22:25:37.457Z,14.89
2023-05-06T22:28:39.644Z,14.81
2023-05-06T22:31:41.868Z,14.75
2023-05-06T22:34:44.117Z,14.59
2023-05-06T22:37:46.326Z,14.54
2023-05-06T22:40:48.574Z,14.45
2023-05-06T22:43:50.937Z,14.36
2023-05-06T22:46:53.262Z,14.21
2023-05-06T22:49:55.531Z,14.06
2023-05-06T22:52:57.797Z,14.05
2023-05-06T22:56:00.058Z,13.91
2023-05-06T22:59:02.299Z,13.93
2023-05-06T23:02:04.475Z,13.92
2023-05-06T23:05:06.848Z,13.92
2023-05-06T23:08:09.154Z,13.91
2023-05-06T23:11:11.378Z,13.96
2023-05-06T23:14:13.559Z,14.05
2023-05-06T23:17:16.000Z,14.14
2023-05-06T23:20:18.354Z,14.18
2023-05-06T23:23:20.559Z,14.26
2023-05-06T23:26:22.883Z,14.29
2023-05-06T23:29:25.140Z,14.31
2023-05-06T23:32:27.355Z,14.27
2023-05-06T23:35:29.618Z,14.20
2023-05-06T23:38:31.861Z,14.25
2023-05-06T23:41:34.093Z,14.20
2023-05-06T23:44:36.886Z,14.02
2023-05-06T23:47:39.130Z,14.11
2023-05-06T23:50:41.292Z,14.01
2023-05-06T23:53:43.451Z,13.97
2023-05-06T23:56:45.744Z,13.90
2023-05-06T23:59:47.959Z,13.90
